createdAt,value
2018-01-28T00:00:58.678Z,14.40
2018-01-28T00:03:26.138Z,12.60
2018-01-28T00:05:53.614Z,12.83
2018-01-28T00:08:21.842Z,13.93
2018-01-28T00:10:49.336Z,13.60
2018-01-28T00:13:16.798Z,14.77
2018-01-28T00:15:44.290Z,13.30
2018-01-28T00:18:11.758Z,15.87
2018-01-28T00:20:39.239Z,16.10
2018-01-28T00:23:06.697Z,14.67
2018-01-28T00:25:34.202Z,15.27
2018-01-28T00:28:01.683Z,16.20
2018-01-28T00:30:29.149Z,15.13
2018-01-28T00:32:56.631Z,16.00
2018-01-28T00:35:24.086Z,14.17
2018-01-28T00:37:51.568Z,14.10
2018-01-28T00:40:19.045Z,14.90
2018-01-28T00:42:47.286Z,14.17
2018-01-28T00:45:14.859Z,13.03
2018-01-28T00:47:42.318Z,13.93
2018-01-28T00:50:09.775Z,12.43
2018-01-28T00:52:37.263Z,14.83
2018-01-28T00:55:04.723Z,13.40
2018-01-28T00:57:32.307Z,13.70
2018-01-28T00:59:59.778Z,12.37
2018-01-28T01:02:27.234Z,14.70
2018-01-28T01:04:54.720Z,13.50
2018-01-28T01:07:22.202Z,13.77
2018-01-28T01:09:49.686Z,12.40
2018-01-28T01:12:17.142Z,13.23
2018-01-28T01:14:44.626Z,12.03
2018-01-28T01:17:12.114Z,12.40
2018-01-28T01:19:40.366Z,13.20
2018-01-28T01:22:07.818Z,10.87
2018-01-28T01:24:35.314Z,11.33
2018-01-28T01:27:03.542Z,11.23
2018-01-28T01:29:31.003Z,12.90
2018-01-28T01:31:58.485Z,11.97
2018-01-28T01:34:26.815Z,13.07
2018-01-28T01:36:54.288Z,11.70
2018-01-28T01:39:21.746Z,13.70
2018-01-28T01:41:49.241Z,13.33
2018-01-28T01:44:17.462Z,13.73
2018-01-28T01:46:44.926Z,13.30
2018-01-28T01:49:18.322Z,14.33
2018-01-28T01:51:45.774Z,14.23
2018-01-28T01:54:13.385Z,16.60
2018-01-28T01:56:41.611Z,14.03
2018-01-28T01:59:09.097Z,14.60
2018-01-28T02:01:36.550Z,15.90
2018-01-28T02:04:04.044Z,15.90
2018-01-28T02:06:32.258Z,16.03
2018-01-28T02:08:59.739Z,14.63
2018-01-28T02:11:27.217Z,15.97
2018-01-28T02:13:54.682Z,16.13
2018-01-28T02:16:22.935Z,16.87
2018-01-28T02:18:50.417Z,18.03
2018-01-28T02:21:18.643Z,18.90
2018-01-28T02:23:46.134Z,18.13
2018-01-28T02:26:13.590Z,19.00
2018-01-28T02:28:41.093Z,20.60
2018-01-28T02:31:08.582Z,20.37
2018-01-28T02:33:36.034Z,20.53
2018-01-28T02:36:03.510Z,19.03
2018-01-28T02:38:30.970Z,17.03
2018-01-28T02:40:58.468Z,20.13
2018-01-28T02:43:25.962Z,19.87
2018-01-28T02:45:53.418Z,19.03
2018-01-28T02:48:20.924Z,19.83
2018-01-28T02:50:49.154Z,19.83
2018-01-28T02:53:16.631Z,19.97
2018-01-28T02:55:44.097Z,20.53
2018-01-28T02:58:11.546Z,20.03
2018-01-28T03:00:39.033Z,18.13
2018-01-28T03:03:07.279Z,20.07
2018-01-28T03:05:34.771Z,19.67
2018-01-28T03:08:02.246Z,17.63
2018-01-28T03:10:29.719Z,16.97
2018-01-28T03:12:57.198Z,16.37
2018-01-28T03:15:24.678Z,16.73
2018-01-28T03:17:52.173Z,17.80
2018-01-28T03:20:20.414Z,20.50
2018-01-28T03:22:47.908Z,19.87
2018-01-28T03:25:15.399Z,18.63
2018-01-28T03:27:42.887Z,18.43
2018-01-28T03:30:10.363Z,19.33
2018-01-28T03:32:38.597Z,18.37
2018-01-28T03:35:06.074Z,17.47
2018-01-28T03:37:33.582Z,17.67
2018-01-28T03:40:01.047Z,19.53
2018-01-28T03:42:28.526Z,18.73
2018-01-28T03:44:56.008Z,17.53
2018-01-28T03:47:23.463Z,17.57
2018-01-28T03:49:50.949Z,17.07
2018-01-28T03:52:18.408Z,17.23
2018-01-28T03:54:45.858Z,16.60
2018-01-28T03:57:13.338Z,17.83
2018-01-28T03:59:40.822Z,16.90
2018-01-28T04:02:08.277Z,18.43
2018-01-28T04:04:35.750Z,17.23
2018-01-28T04:07:03.225Z,18.07
2018-01-28T04:09:31.473Z,19.00
2018-01-28T04:11:58.933Z,18.73
2018-01-28T04:14:26.413Z,18.27
2018-01-28T04:16:53.862Z,18.07
2018-01-28T04:19:21.314Z,18.13
2018-01-28T04:21:48.805Z,19.40
2018-01-28T04:24:17.057Z,19.43
2018-01-28T04:26:44.506Z,17.73
2018-01-28T04:29:11.974Z,17.53
2018-01-28T04:31:39.453Z,18.90
2018-01-28T04:34:06.922Z,18.23
2018-01-28T04:36:34.394Z,19.93
2018-01-28T04:39:01.854Z,18.90
2018-01-28T04:41:29.338Z,20.17
2018-01-28T04:43:56.801Z,21.07
2018-01-28T04:46:24.318Z,20.70
2018-01-28T04:48:51.791Z,20.93
2018-01-28T04:51:19.242Z,22.40
2018-01-28T04:53:46.726Z,21.97
2018-01-28T04:56:14.207Z,19.83
2018-01-28T04:58:41.684Z,20.90
2018-01-28T05:01:09.165Z,18.20
2018-01-28T05:03:36.634Z,18.43
2018-01-28T05:06:04.959Z,18.63
2018-01-28T05:08:32.390Z,17.87
2018-01-28T05:10:59.871Z,17.77
2018-01-28T05:13:28.106Z,17.37
2018-01-28T05:15:55.583Z,17.17
2018-01-28T05:18:23.057Z,17.57
2018-01-28T05:20:51.294Z,18.20
2018-01-28T05:23:19.546Z,15.73
2018-01-28T05:25:47.049Z,15.47
2018-01-28T05:28:14.497Z,15.07
2018-01-28T05:30:41.965Z,15.60
2018-01-28T05:33:09.438Z,14.40
2018-01-28T05:35:37.702Z,13.43
2018-01-28T05:38:05.158Z,12.90
2018-01-28T05:40:32.667Z,13.30
2018-01-28T05:43:00.122Z,11.70
2018-01-28T05:45:27.610Z,11.67
2018-01-28T05:47:55.077Z,10.53
2018-01-28T05:50:22.574Z,10.33
2018-01-28T05:52:50.161Z,10.30
2018-01-28T05:55:17.638Z,9.53
2018-01-28T05:57:45.111Z,9.70
2018-01-28T06:00:12.577Z,9.70
2018-01-28T06:02:40.059Z,8.20
2018-01-28T06:05:07.509Z,8.43
2018-01-28T06:07:34.966Z,8.40
2018-01-28T06:10:02.454Z,8.53
2018-01-28T06:12:29.894Z,7.43
2018-01-28T06:14:57.368Z,6.37
2018-01-28T06:17:24.857Z,6.83
2018-01-28T06:19:52.327Z,6.30
2018-01-28T06:22:19.819Z,6.63
2018-01-28T06:24:47.278Z,6.43
2018-01-28T06:27:14.778Z,6.70
2018-01-28T06:29:42.286Z,5.83
2018-01-28T06:32:09.693Z,5.87
2018-01-28T06:34:37.184Z,5.50
2018-01-28T06:37:05.418Z,6.37
2018-01-28T06:39:33.634Z,5.87
2018-01-28T06:42:01.106Z,6.20
2018-01-28T06:44:28.554Z,6.63
2018-01-28T06:46:56.026Z,6.27
2018-01-28T06:49:23.478Z,6.40
2018-01-28T06:51:50.965Z,5.97
2018-01-28T06:54:18.446Z,6.50
2018-01-28T06:56:45.902Z,6.53
2018-01-28T06:59:13.385Z,6.10
2018-01-28T07:01:41.605Z,6.30
2018-01-28T07:04:09.077Z,9.10
2018-01-28T07:06:36.558Z,6.17
2018-01-28T07:09:04.090Z,6.07
2018-01-28T07:11:31.505Z,6.40
2018-01-28T07:13:59.732Z,5.00
2018-01-28T07:16:27.210Z,6.87
2018-01-28T07:18:54.669Z,6.20
2018-01-28T07:21:22.937Z,5.77
2018-01-28T07:23:50.389Z,6.00
2018-01-28T07:26:17.897Z,6.37
2018-01-28T07:28:45.342Z,6.70
2018-01-28T07:31:12.815Z,7.87
2018-01-28T07:33:40.292Z,6.03
2018-01-28T07:36:07.789Z,5.50
2018-01-28T07:38:35.242Z,6.03
2018-01-28T07:41:02.751Z,6.20
2018-01-28T07:43:30.218Z,5.20
2018-01-28T07:45:57.670Z,6.70
2018-01-28T07:48:25.156Z,5.60
2018-01-28T07:50:52.633Z,6.13
2018-01-28T07:53:20.137Z,5.70
2018-01-28T07:55:47.574Z,5.63
2018-01-28T07:58:15.820Z,6.03
2018-01-28T08:00:43.296Z,6.07
2018-01-28T08:03:11.543Z,6.17
2018-01-28T08:05:39.018Z,7.03
2018-01-28T08:08:06.492Z,5.67
2018-01-28T08:10:44.765Z,6.00
2018-01-28T08:16:12.415Z,6.47
2018-01-28T08:18:39.921Z,6.73
2018-01-28T08:21:07.374Z,5.40
2018-01-28T08:23:34.840Z,5.47
2018-01-28T08:26:02.322Z,7.03
2018-01-28T08:28:38.451Z,5.63
2018-01-28T08:31:05.929Z,5.77
2018-01-28T08:33:33.399Z,6.30
2018-01-28T08:36:00.866Z,6.20
2018-01-28T08:38:28.359Z,5.97
2018-01-28T08:40:55.817Z,6.30
2018-01-28T08:43:23.281Z,6.63
2018-01-28T08:45:50.762Z,6.20
2018-01-28T08:48:18.237Z,6.77
2018-01-28T08:50:45.737Z,6.30
2018-01-28T08:53:13.210Z,5.87
2018-01-28T08:55:40.674Z,6.63
2018-01-28T08:58:08.293Z,5.67
2018-01-28T09:00:35.771Z,6.93
2018-01-28T09:03:03.243Z,6.10
2018-01-28T09:05:30.779Z,6.57
2018-01-28T09:07:58.303Z,6.73
2018-01-28T09:10:25.762Z,6.13
2018-01-28T09:12:53.238Z,6.37
2018-01-28T09:15:20.749Z,6.17
2018-01-28T09:17:48.974Z,5.73
2018-01-28T09:20:16.433Z,5.67
2018-01-28T09:22:43.898Z,6.60
2018-01-28T09:25:11.374Z,6.03
2018-01-28T09:27:38.846Z,6.87
2018-01-28T09:30:06.306Z,6.90
2018-01-28T09:32:34.529Z,6.60
2018-01-28T09:35:01.999Z,6.83
2018-01-28T09:37:29.450Z,7.47
2018-01-28T09:39:56.926Z,6.10
2018-01-28T09:42:24.369Z,6.50
2018-01-28T09:44:51.870Z,7.23
2018-01-28T09:47:19.326Z,5.60
2018-01-28T09:49:46.785Z,6.37
2018-01-28T09:52:14.286Z,6.13
2018-01-28T09:54:41.739Z,5.90
2018-01-28T09:57:09.198Z,5.90
2018-01-28T09:59:36.679Z,6.23
2018-01-28T10:02:04.173Z,5.70
2018-01-28T10:04:31.630Z,6.40
2018-01-28T10:06:59.851Z,7.00
2018-01-28T10:09:27.326Z,5.80
2018-01-28T10:11:55.554Z,7.83
2018-01-28T10:14:23.805Z,5.67
2018-01-28T10:16:51.265Z,6.43
2018-01-28T10:19:18.725Z,7.37
2018-01-28T10:21:46.206Z,6.90
2018-01-28T10:24:14.423Z,6.40
2018-01-28T10:26:41.917Z,6.40
2018-01-28T10:29:10.144Z,6.67
2018-01-28T10:31:37.594Z,6.13
2018-01-28T10:34:05.076Z,5.50
2018-01-28T10:36:32.538Z,6.30
2018-01-28T10:39:00.023Z,6.23
2018-01-28T10:41:27.506Z,6.13
2018-01-28T10:43:54.957Z,6.03
2018-01-28T10:46:22.442Z,5.53
2018-01-28T10:48:49.900Z,7.17
2018-01-28T10:51:17.378Z,6.60
2018-01-28T10:53:44.834Z,6.90
2018-01-28T10:56:12.285Z,6.93
2018-01-28T10:58:39.758Z,5.80
2018-01-28T11:01:07.214Z,6.83
2018-01-28T11:03:34.725Z,6.13
2018-01-28T11:06:02.183Z,6.50
2018-01-28T11:08:29.646Z,5.80
2018-01-28T11:10:57.131Z,6.07
2018-01-28T11:13:24.598Z,6.10
2018-01-28T11:15:52.083Z,7.03
2018-01-28T11:18:19.554Z,6.43
2018-01-28T11:20:47.078Z,7.30
2018-01-28T11:23:14.561Z,6.23
2018-01-28T11:25:43.005Z,5.67
2018-01-28T11:28:10.449Z,6.23
2018-01-28T11:30:37.914Z,6.90
2018-01-28T11:33:05.390Z,6.53
2018-01-28T11:35:32.881Z,7.00
2018-01-28T11:38:00.366Z,6.03
2018-01-28T11:40:27.848Z,6.90
2018-01-28T11:42:55.302Z,6.23
2018-01-28T11:45:22.800Z,6.33
2018-01-28T11:47:50.358Z,6.80
2018-01-28T11:50:17.858Z,7.03
2018-01-28T11:52:45.373Z,6.37
2018-01-28T11:55:13.666Z,5.70
2018-01-28T11:57:41.193Z,7.07
2018-01-28T12:00:08.662Z,6.03
2018-01-28T12:02:36.922Z,7.03
2018-01-28T12:05:04.418Z,7.20
2018-01-28T12:07:31.873Z,7.40
2018-01-28T12:09:59.326Z,6.83
2018-01-28T12:12:26.818Z,6.07
2018-01-28T12:14:54.278Z,5.87
2018-01-28T12:17:21.742Z,7.97
2018-01-28T12:19:49.213Z,7.00
2018-01-28T12:22:16.675Z,7.47
2018-01-28T12:24:44.166Z,7.03
2018-01-28T12:27:11.661Z,7.57
2018-01-28T12:29:39.129Z,7.23
2018-01-28T12:32:06.617Z,7.63
2018-01-28T12:34:34.094Z,7.20
2018-01-28T12:37:02.318Z,7.53
2018-01-28T12:39:29.777Z,8.53
2018-01-28T12:41:58.134Z,7.40
2018-01-28T12:44:25.621Z,8.60
2018-01-28T12:46:53.093Z,7.70
2018-01-28T12:49:20.546Z,7.87
2018-01-28T12:51:48.017Z,10.03
2018-01-28T12:54:16.261Z,8.20
2018-01-28T12:56:43.729Z,7.53
2018-01-28T12:59:11.182Z,9.03
2018-01-28T13:01:39.455Z,7.17
2018-01-28T13:04:06.911Z,8.13
2018-01-28T13:06:34.361Z,7.50
2018-01-28T13:09:01.841Z,7.83
2018-01-28T13:11:29.315Z,7.23
2018-01-28T13:13:57.655Z,8.57
2018-01-28T13:16:25.125Z,8.20
2018-01-28T13:18:52.626Z,8.07
2018-01-28T13:21:20.088Z,8.33
2018-01-28T13:23:47.582Z,8.00
2018-01-28T13:26:15.044Z,8.40
2018-01-28T13:28:42.502Z,10.93
2018-01-28T13:31:09.994Z,8.80
2018-01-28T13:33:38.237Z,9.17
2018-01-28T13:36:05.702Z,8.03
2018-01-28T13:38:33.182Z,9.20
2018-01-28T13:41:01.406Z,8.17
2018-01-28T13:43:28.955Z,8.10
2018-01-28T13:45:56.442Z,7.97
2018-01-28T13:48:23.924Z,8.53
2018-01-28T13:50:51.365Z,8.83
2018-01-28T13:53:18.833Z,7.43
2018-01-28T13:55:46.293Z,7.33
2018-01-28T13:58:13.854Z,7.10
2018-01-28T14:00:41.353Z,8.73
2018-01-28T14:03:08.818Z,8.40
2018-01-28T14:05:36.302Z,7.47
2018-01-28T14:08:03.758Z,8.10
2018-01-28T14:10:31.230Z,8.23
2018-01-28T14:12:58.682Z,8.40
2018-01-28T14:15:26.154Z,7.53
2018-01-28T14:17:53.597Z,9.07
2018-01-28T14:20:21.109Z,7.97
2018-01-28T14:22:48.563Z,8.27
2018-01-28T14:25:16.050Z,8.67
2018-01-28T14:27:43.507Z,6.93
2018-01-28T14:30:10.989Z,8.43
2018-01-28T14:32:38.461Z,7.63
2018-01-28T14:35:06.682Z,7.50
2018-01-28T14:37:34.145Z,8.10
2018-01-28T14:40:01.636Z,7.10
2018-01-28T14:42:29.081Z,7.30
2018-01-28T14:44:56.569Z,8.00
2018-01-28T14:47:24.807Z,7.47
2018-01-28T14:49:52.276Z,7.93
2018-01-28T14:52:19.757Z,8.30
2018-01-28T14:54:47.973Z,8.50
2018-01-28T14:57:15.438Z,8.90
2018-01-28T14:59:42.982Z,8.57
2018-01-28T15:02:10.410Z,10.60
2018-01-28T15:04:38.651Z,10.57
2018-01-28T15:07:06.127Z,9.10
2018-01-28T15:09:33.585Z,9.00
2018-01-28T15:12:01.825Z,9.73
2018-01-28T15:14:29.318Z,9.50
2018-01-28T15:16:56.770Z,13.90
2018-01-28T15:19:24.322Z,13.93
2018-01-28T15:21:51.842Z,13.97
2018-01-28T15:24:20.115Z,9.33
2018-01-28T15:26:47.634Z,7.63
2018-01-28T15:29:15.106Z,7.93
2018-01-28T15:31:42.642Z,7.20
2018-01-28T15:34:10.180Z,9.57
2018-01-28T15:36:37.589Z,8.43
2018-01-28T15:39:05.983Z,8.50
2018-01-28T15:41:33.466Z,9.20
2018-01-28T15:44:00.957Z,8.60
2018-01-28T15:46:28.440Z,8.20
2018-01-28T15:48:56.685Z,7.97
2018-01-28T15:51:24.154Z,7.63
2018-01-28T15:53:51.602Z,8.20
2018-01-28T15:56:19.070Z,8.33
2018-01-28T15:58:47.309Z,8.97
2018-01-28T16:01:14.793Z,9.63
2018-01-28T16:03:42.242Z,9.13
2018-01-28T16:06:09.706Z,8.90
2018-01-28T16:08:37.257Z,9.80
2018-01-28T16:11:04.713Z,9.43
2018-01-28T16:13:32.189Z,9.53
2018-01-28T16:15:59.645Z,9.83
2018-01-28T16:18:27.141Z,11.17
2018-01-28T16:20:54.586Z,11.70
2018-01-28T16:23:22.037Z,11.50
2018-01-28T16:25:50.302Z,13.57
2018-01-28T16:28:17.757Z,12.50
2018-01-28T16:30:45.213Z,11.97
2018-01-28T16:33:12.714Z,13.20
2018-01-28T16:35:40.182Z,11.27
2018-01-28T16:38:07.665Z,12.40
2018-01-28T16:40:35.149Z,14.30
2018-01-28T16:43:03.410Z,10.83
2018-01-28T16:45:30.886Z,10.67
2018-01-28T16:47:58.330Z,15.50
2018-01-28T16:50:25.806Z,13.13
2018-01-28T16:52:54.140Z,13.73
2018-01-28T16:55:21.594Z,14.20
2018-01-28T16:57:49.074Z,12.03
2018-01-28T17:00:16.534Z,13.87
2018-01-28T17:02:44.010Z,14.70
2018-01-28T17:05:13.001Z,15.50
2018-01-28T17:07:40.553Z,14.57
2018-01-28T17:10:08.015Z,14.47
2018-01-28T17:12:35.475Z,16.00
2018-01-28T17:15:02.992Z,20.20
2018-01-28T17:17:30.453Z,16.20
2018-01-28T17:19:57.934Z,14.70
2018-01-28T17:22:25.453Z,18.03
2018-01-28T17:24:52.903Z,17.33
2018-01-28T17:27:20.396Z,17.50
2018-01-28T17:29:47.890Z,18.60
2018-01-28T17:32:16.138Z,16.90
2018-01-28T17:34:43.625Z,21.23
2018-01-28T17:37:11.083Z,18.63
2018-01-28T17:39:40.082Z,18.57
2018-01-28T17:42:07.547Z,16.83
2018-01-28T17:44:34.990Z,19.37
2018-01-28T17:47:03.262Z,18.80
2018-01-28T17:49:30.714Z,19.03
2018-01-28T17:51:58.186Z,16.77
2018-01-28T17:54:26.430Z,16.27
2018-01-28T17:56:53.874Z,14.27
2018-01-28T17:59:21.368Z,19.40
2018-01-28T18:01:48.837Z,16.77
2018-01-28T18:04:17.050Z,17.20
2018-01-28T18:06:44.523Z,14.03
2018-01-28T18:09:12.042Z,13.87
2018-01-28T18:11:39.498Z,12.50
2018-01-28T18:14:06.966Z,14.17
2018-01-28T18:16:34.453Z,14.40
2018-01-28T18:19:02.091Z,13.23
2018-01-28T18:21:29.550Z,11.80
2018-01-28T18:23:57.103Z,11.30
2018-01-28T18:26:24.578Z,11.47
2018-01-28T18:28:52.042Z,10.47
2018-01-28T18:31:19.582Z,11.00
2018-01-28T18:33:47.030Z,8.00
2018-01-28T18:36:14.557Z,8.83
2018-01-28T18:38:42.864Z,9.57
2018-01-28T18:41:10.343Z,8.50
2018-01-28T18:43:37.826Z,9.20
2018-01-28T18:46:05.282Z,7.10
2018-01-28T18:48:32.762Z,7.93
2018-01-28T18:51:00.210Z,8.30
2018-01-28T18:53:27.687Z,7.83
2018-01-28T18:55:58.014Z,8.03
2018-01-28T18:58:26.289Z,8.50
2018-01-28T19:00:53.790Z,7.93
2018-01-28T19:03:21.250Z,9.20
2018-01-28T19:05:48.734Z,8.27
2018-01-28T19:08:16.186Z,7.30
2018-01-28T19:10:43.663Z,7.97
2018-01-28T19:13:11.110Z,7.67
2018-01-28T19:15:38.613Z,6.70
2018-01-28T19:18:06.074Z,7.23
2018-01-28T19:20:33.554Z,7.33
2018-01-28T19:23:01.095Z,7.53
2018-01-28T19:25:28.593Z,5.70
2018-01-28T19:27:56.038Z,7.10
2018-01-28T19:30:23.499Z,6.43
2018-01-28T19:32:50.977Z,5.93
2018-01-28T19:35:18.426Z,6.50
2018-01-28T19:37:45.894Z,6.67
2018-01-28T19:40:13.347Z,5.60
2018-01-28T19:42:40.794Z,5.37
2018-01-28T19:45:08.265Z,7.33
2018-01-28T19:47:35.718Z,6.70
2018-01-28T19:50:03.191Z,5.40
2018-01-28T19:52:30.682Z,6.03
2018-01-28T19:54:58.146Z,4.80
2018-01-28T19:57:25.602Z,5.30
2018-01-28T19:59:53.074Z,5.47
2018-01-28T20:02:20.542Z,5.87
2018-01-28T20:04:48.050Z,4.10
2018-01-28T20:07:15.489Z,4.63
2018-01-28T20:09:43.712Z,4.43
2018-01-28T20:12:11.207Z,5.40
2018-01-28T20:14:38.699Z,4.30
2018-01-28T20:17:06.170Z,4.93
2018-01-28T20:19:33.657Z,5.80
2018-01-28T20:22:01.126Z,5.23
2018-01-28T20:24:28.582Z,4.60
2018-01-28T20:26:56.050Z,4.70
2018-01-28T20:29:23.521Z,5.27
2018-01-28T20:31:51.739Z,4.17
2018-01-28T20:34:19.323Z,4.47
2018-01-28T20:36:46.855Z,2.80
2018-01-28T20:39:14.441Z,3.60
2018-01-28T20:41:42.085Z,4.70
2018-01-28T20:44:09.538Z,5.10
2018-01-28T20:46:37.013Z,3.30
2018-01-28T20:49:04.469Z,4.83
2018-01-28T20:51:31.948Z,4.33
2018-01-28T20:53:59.415Z,4.27
2018-01-28T20:56:26.927Z,3.70
2018-01-28T20:58:54.390Z,4.20
2018-01-28T21:01:21.836Z,3.40
2018-01-28T21:03:49.322Z,5.37
2018-01-28T21:06:16.789Z,3.67
2018-01-28T21:08:44.362Z,4.70
2018-01-28T21:11:11.894Z,3.73
2018-01-28T21:13:39.390Z,4.00
2018-01-28T21:16:07.626Z,3.30
2018-01-28T21:18:35.086Z,3.27
2018-01-28T21:21:03.494Z,3.57
2018-01-28T21:23:30.946Z,4.20
2018-01-28T21:25:58.631Z,4.73
2018-01-28T21:28:26.070Z,4.13
2018-01-28T21:30:53.527Z,3.73
2018-01-28T21:33:21.152Z,3.97
2018-01-28T21:35:48.738Z,3.87
2018-01-28T21:38:16.205Z,4.73
2018-01-28T21:40:43.651Z,4.50
2018-01-28T21:43:11.305Z,4.10
2018-01-28T21:45:38.762Z,5.00
2018-01-28T21:48:06.294Z,4.83
2018-01-28T21:50:33.747Z,3.83
2018-01-28T21:53:01.242Z,4.47
2018-01-28T21:55:28.704Z,4.07
2018-01-28T21:57:56.918Z,4.47
2018-01-28T22:00:25.153Z,5.03
2018-01-28T22:02:52.617Z,4.80
2018-01-28T22:05:20.090Z,4.90
2018-01-28T22:07:47.633Z,5.57
2018-01-28T22:10:15.127Z,5.07
2018-01-28T22:12:43.357Z,5.77
2018-01-28T22:15:10.817Z,5.77
2018-01-28T22:17:38.290Z,6.70
2018-01-28T22:20:05.733Z,5.43
2018-01-28T22:22:33.198Z,7.03
2018-01-28T22:25:00.674Z,5.80
2018-01-28T22:27:28.131Z,5.57
2018-01-28T22:29:55.589Z,6.67
2018-01-28T22:32:23.078Z,6.43
2018-01-28T22:34:51.317Z,6.83
2018-01-28T22:37:19.535Z,7.90
2018-01-28T22:39:47.018Z,5.23
2018-01-28T22:42:14.490Z,6.37
2018-01-28T22:44:42.036Z,7.73
2018-01-28T22:47:09.486Z,6.50
2018-01-28T22:49:36.944Z,7.57
2018-01-28T22:52:04.417Z,8.53
2018-01-28T22:54:31.885Z,6.83
2018-01-28T22:56:59.361Z,8.70
2018-01-28T22:59:26.850Z,8.63
2018-01-28T23:01:54.333Z,8.20
2018-01-28T23:04:21.842Z,7.40
2018-01-28T23:06:49.450Z,7.10
2018-01-28T23:09:16.886Z,7.03
2018-01-28T23:11:44.371Z,6.00
2018-01-28T23:14:11.825Z,8.20
2018-01-28T23:16:39.330Z,7.03
2018-01-28T23:19:06.779Z,6.37
2018-01-28T23:21:34.270Z,6.57
2018-01-28T23:24:02.489Z,8.23
2018-01-28T23:26:29.945Z,8.07
2018-01-28T23:28:57.439Z,7.00
2018-01-28T23:31:24.885Z,7.60
2018-01-28T23:33:52.382Z,8.43
2018-01-28T23:36:19.842Z,8.73
2018-01-28T23:38:47.299Z,10.63
2018-01-28T23:41:14.784Z,10.27
2018-01-28T23:43:42.461Z,11.60
2018-01-28T23:46:10.207Z,11.77
2018-01-28T23:48:37.658Z,9.53
2018-01-28T23:51:05.120Z,11.63
2018-01-28T23:53:32.602Z,9.40
2018-01-28T23:56:00.058Z,12.67
2018-01-28T23:58:27.507Z,13.70
